Kill Devil Hills, NC

6:14 PM EDT on July 03, 2015 (GMT -0400)
First Flight | | Change Station
CLOSE
Current Station
Airport
Location: Kill Devil Hills,
Elevation: 13 ft
Nearby Weather Stations

Elev 13 ft 36.02 °N, 75.67 °W | Updated 19 minutes ago

Rain
Rain
76 °F
Feels Like 76 °F
N
7
Wind Variable Wind from ESE

Today
High -- | Low -- °F
--% Chance of Precip.
Yesterday
High -- | Low -- °F
Precip. -- in
5:50 AM 8:23 PM
Waning Gibbous, 96% visible
Pressure 29.93 in
Visibility 3.0 miles
Clouds Scattered Clouds 1600 ft
Mostly Cloudy 2000 ft
Overcast 3400 ft
Dew Point 71 °F
Humidity 84%
Rainfall 0.35 in
Snow Depth Not available.
UV 1 out of 12
Pollen 3.70 out of 12
Air Quality Not available.
Flu Activity Not available.
METAR KFFA 032155Z AUTO 12006KT 3SM RA SCT016 BKN020 OVC034 25/22 A2993 RMK AO2 P0008 T02450216

More Conditions Fewer Conditions

Pressure 29.93 in
Visibility 3.0 miles
Clouds Scattered Clouds 1600 ft
Mostly Cloudy 2000 ft
Overcast 3400 ft
Dew Point 71 °F
Humidity 84%
Rainfall 0.35 in
Snow Depth Not available.
UV 1 out of 12
Pollen 3.70 out of 12
Air Quality Not available.
Flu Activity Not available.
METAR KFFA 032155Z AUTO 12006KT 3SM RA SCT016 BKN020 OVC034 25/22 A2993 RMK AO2 P0008 T02450216

More Conditions Fewer Conditions

10-Day Weather Forecast

×

Almanac

Astronomy

Jul. 03, 2015 Rise Set
Actual Time
Civil Twilight
Nautical Twilight
Astronomical Twilight
Moon
Length of Visible Light
Length of Day
Tomorrow will be .
, % of the Moon is Illuminated

Today's Extremes

State Highs State Lows

Community

WunderPhotos

Upload Photos

1,834,790 photos uploaded!

WunderBlogs® & News

Nearby

Air Quality

  Air Quality AQ Index Pollutant
Not available.

Snow Depth

Station Depth Elevation

Earthquake Activity

City Distance Mag. Time & Date
Minimum magnitude displayed is 2.5.

Coastal Water Temperatures

Place Temperature

Stations

Nearby Weather Stations

Station Location Temp. Windchill Dew Point Humidity Wind Precip. Elev Updated Type